MiSS Christi — WBM6513 — position and weather

sailwx.info

Track history (hours):
 
Tides and Currents Weather Stations Pressure Air Temp Water Temp Dewpoint Dewpoint Depression Visibility Wind Speed Wind Dir Waves Ship Positions

MiSS Christi

More information available from US FCC via Universal Licensing System and Coast Guard Vessel Documentation Center.

Last reported at 2014-Sep-13 21:31 UTC. Time now 2014-Sep-15 02:00 UTC.
Position N 33°31' W 118°26'.

Length 15 m; draft 1.5 m.

Type: Pleasure craft. MMSI: 367311590.

Date/timePositionNaut miles runAvg speedWind from/ knotsBaromVisibWave heightAir tempDewpointWater temp
2014-Sep-13 21:31N 33°31' W 118°26'5 1.0
2014-Sep-13 16:17N 33°27' W 118°29'1216.9
2014-Sep-13 15:33N 33°37' W 118°20'8 8.4
2014-Sep-13 14:33N 33°44' W 118°16'1713.2
2014-Sep-13 13:17N 33°30' W 118°26'2 0.2
2014-Sep-13 00:33N 33°28' W 118°28'1716.8
2014-Sep-12 23:33N 33°41' W 118°16'3 2.8
2014-Sep-12 22:33N 33°44' W 118°16'0 0.0
2014-Sep-12 21:33N 33°44' W 118°16'4 3.9
2014-Sep-12 20:34N 33°40' W 118°17'16 3.9
2014-Sep-12 16:24N 33°27' W 118°29'1416.8
2014-Sep-12 15:33N 33°38' W 118°18'6 6.0
2014-Sep-12 14:34N 33°44' W 118°16'3 0.2
2014-Sep-11 23:33N 33°41' W 118°16'1616.0
2014-Sep-11 22:33N 33°28' W 118°28'2 1.8
2014-Sep-11 21:28N 33°27' W 118°29'0 0.0
2014-Sep-11 20:22N 33°27' W 118°29'0 0.0
2014-Sep-11 19:15N 33°27' W 118°29'0 0.1
2014-Sep-11 16:26N 33°27' W 118°29'1415.8
2014-Sep-11 15:33N 33°38' W 118°19'6 6.4
2014-Sep-11 14:33N 33°44' W 118°16'7 0.5
2014-Sep-10 23:28N 33°37' W 118°19'1314.8
2014-Sep-10 22:33N 33°27' W 118°29'0 0.0
2014-Sep-10 21:33N 33°27' W 118°29'0 0.0
2014-Sep-10 20:33N 33°27' W 118°29'0 0.0
2014-Sep-10 19:33N 33°27' W 118°29'0 0.0
2014-Sep-10 18:33N 33°27' W 118°29'9 2.9
2014-Sep-10 15:21N 33°34' W 118°23'1113.9
2014-Sep-10 14:33N 33°44' W 118°16'5 0.3
2014-Sep-09 23:27N 33°39' W 118°17'1617.4
2014-Sep-09 22:33N 33°27' W 118°29'0 0.1
2014-Sep-09 21:04N 33°27' W 118°29'0 0.0
2014-Sep-09 20:33N 33°27' W 118°29'0 0.0
2014-Sep-09 19:34N 33°27' W 118°29'0 0.0
2014-Sep-09 18:33N 33°27' W 118°29'11 3.4
2014-Sep-09 15:19N 33°36' W 118°22'6 0.4
2014-Sep-08 23:26N 33°40' W 118°17'6 0.7
2014-Sep-08 15:28N 33°35' W 118°22'1011.2
2014-Sep-08 14:33N 33°44' W 118°16'6 0.3
2014-Sep-07 18:23N 33°38' W 118°19'1417.0
2014-Sep-07 17:33N 33°27' W 118°29'3 0.1
2014-Sep-06 18:25N 33°29' W 118°27'1415.9
2014-Sep-06 17:33N 33°40' W 118°17'  
Track history (hours):
 
Tides and Currents Weather Stations Pressure Air Temp Water Temp Dewpoint Dewpoint Depression Visibility Wind Speed Wind Dir Waves Ship Positions

MiSS Christi

More information available from US FCC via Universal Licensing System and Coast Guard Vessel Documentation Center.

Last reported at 2014-Sep-13 21:31 UTC. Time now 2014-Sep-15 02:00 UTC.
Position N 33°31' W 118°26'.

Length 15 m; draft 1.5 m.

Type: Pleasure craft. MMSI: 367311590.

Date/timePositionNaut miles runAvg speedWind from/ knotsBaromVisibWave heightAir tempDewpointWater temp
2014-Sep-13 21:31N 33°31' W 118°26'5 1.0
2014-Sep-13 16:17N 33°27' W 118°29'1216.9
2014-Sep-13 15:33N 33°37' W 118°20'8 8.4
2014-Sep-13 14:33N 33°44' W 118°16'1713.2
2014-Sep-13 13:17N 33°30' W 118°26'2 0.2
2014-Sep-13 00:33N 33°28' W 118°28'1716.8
2014-Sep-12 23:33N 33°41' W 118°16'3 2.8
2014-Sep-12 22:33N 33°44' W 118°16'0 0.0
2014-Sep-12 21:33N 33°44' W 118°16'4 3.9
2014-Sep-12 20:34N 33°40' W 118°17'16 3.9
2014-Sep-12 16:24N 33°27' W 118°29'1416.8
2014-Sep-12 15:33N 33°38' W 118°18'6 6.0
2014-Sep-12 14:34N 33°44' W 118°16'3 0.2
2014-Sep-11 23:33N 33°41' W 118°16'1616.0
2014-Sep-11 22:33N 33°28' W 118°28'2 1.8
2014-Sep-11 21:28N 33°27' W 118°29'0 0.0
2014-Sep-11 20:22N 33°27' W 118°29'0 0.0
2014-Sep-11 19:15N 33°27' W 118°29'0 0.1
2014-Sep-11 16:26N 33°27' W 118°29'1415.8
2014-Sep-11 15:33N 33°38' W 118°19'6 6.4
2014-Sep-11 14:33N 33°44' W 118°16'7 0.5
2014-Sep-10 23:28N 33°37' W 118°19'1314.8
2014-Sep-10 22:33N 33°27' W 118°29'0 0.0
2014-Sep-10 21:33N 33°27' W 118°29'0 0.0
2014-Sep-10 20:33N 33°27' W 118°29'0 0.0
2014-Sep-10 19:33N 33°27' W 118°29'0 0.0
2014-Sep-10 18:33N 33°27' W 118°29'9 2.9
2014-Sep-10 15:21N 33°34' W 118°23'1113.9
2014-Sep-10 14:33N 33°44' W 118°16'5 0.3
2014-Sep-09 23:27N 33°39' W 118°17'1617.4
2014-Sep-09 22:33N 33°27' W 118°29'0 0.1
2014-Sep-09 21:04N 33°27' W 118°29'0 0.0
2014-Sep-09 20:33N 33°27' W 118°29'0 0.0
2014-Sep-09 19:34N 33°27' W 118°29'0 0.0
2014-Sep-09 18:33N 33°27' W 118°29'11 3.4
2014-Sep-09 15:19N 33°36' W 118°22'6 0.4
2014-Sep-08 23:26N 33°40' W 118°17'6 0.7
2014-Sep-08 15:28N 33°35' W 118°22'1011.2
2014-Sep-08 14:33N 33°44' W 118°16'6 0.3
2014-Sep-07 18:23N 33°38' W 118°19'1417.0
2014-Sep-07 17:33N 33°27' W 118°29'3 0.1
2014-Sep-06 18:25N 33°29' W 118°27'1415.9
2014-Sep-06 17:33N 33°40' W 118°17'  

Dump ship's entire track history